Time;durP1;ratioP1;P1;durP2;ratioP2;P2;SDS_P1;SDS_P2;PMS_P1;PMS_P2;Temp;Humidity;BMP_temperature;BMP_pressure;BME280_temperature;BME280_humidity;BME280_pressure;Samples;Min_cycle;Max_cycle;Signal;HPM_P1;HPM_P2
2022/06/24 00:00:44;;;;;;;5.20;2.33;;;;;;;25.05;58.51;98288.34;6973776;28;20304;-77
2022/06/24 00:04:06;;;;;;;5.57;2.20;;;;;;;24.73;59.45;98291.28;6974081;28;20384;-77
2022/06/24 00:07:27;;;;;;;5.60;2.13;;;;;;;24.76;59.51;98284.31;6973625;28;20256;-77
2022/06/24 00:10:49;;;;;;;3.27;1.83;;;;;;;24.68;59.08;98291.41;6973885;28;20203;-77
2022/06/24 00:14:14;;;;;;;4.40;2.10;;;;;;;24.71;60.26;98276.97;6973617;28;20304;-78
2022/06/24 00:17:37;;;;;;;5.07;2.20;;;;;;;24.43;59.39;98211.16;6971705;28;20282;-77
2022/06/24 00:20:58;;;;;;;5.00;2.03;;;;;;;24.90;59.09;98276.84;6973422;28;20268;-77
2022/06/24 00:24:22;;;;;;;5.70;2.20;;;;;;;24.85;59.20;98263.19;6973647;28;20252;-77
2022/06/24 00:27:58;;;;;;;3.37;1.90;;;;;;;24.70;60.21;98257.97;6971717;28;20209;-77
2022/06/24 00:31:21;;;;;;;3.93;1.83;;;;;;;24.57;59.50;98226.56;6973833;28;20791;-77
2022/06/24 00:34:43;;;;;;;4.27;1.93;;;;;;;24.64;60.73;98249.03;6973536;28;20220;-77
2022/06/24 00:38:26;;;;;;;4.50;2.10;;;;;;;24.50;61.18;98231.66;6972326;28;20244;-77
2022/06/24 00:41:50;;;;;;;5.93;2.40;;;;;;;24.56;61.83;98244.22;6973498;28;20788;-78
2022/06/24 00:45:17;;;;;;;3.90;2.07;;;;;;;24.85;60.03;98241.13;6973267;28;20263;-78
2022/06/24 00:48:43;;;;;;;4.90;2.10;;;;;;;24.82;59.46;98241.72;6958689;28;20210;-77
2022/06/24 00:52:07;;;;;;;4.73;2.27;;;;;;;24.75;59.95;98241.34;6945785;28;20231;-78
2022/06/24 00:55:31;;;;;;;4.30;2.07;;;;;;;24.58;60.36;98230.13;6945777;28;20554;-77
2022/06/24 00:58:56;;;;;;;4.97;2.47;;;;;;;23.91;61.90;98219.94;6944165;28;20197;-77
2022/06/24 01:02:17;;;;;;;4.40;2.30;;;;;;;24.56;60.25;98221.34;6957333;28;20238;-77
2022/06/24 01:05:41;;;;;;;6.37;2.30;;;;;;;24.46;60.60;98216.84;6966581;28;20278;-77
2022/06/24 01:09:03;;;;;;;5.50;2.03;;;;;;;24.52;60.32;98223.91;6943742;28;20207;-78
2022/06/24 01:12:25;;;;;;;4.03;2.00;;;;;;;24.54;60.25;98220.84;6944659;28;20696;-78
2022/06/24 01:15:46;;;;;;;4.53;2.37;;;;;;;24.12;61.45;98210.16;6945014;28;23901;-78
2022/06/24 01:19:09;;;;;;;4.13;2.10;;;;;;;24.19;60.28;98192.06;6942764;28;20371;-77
2022/06/24 01:22:33;;;;;;;5.40;2.07;;;;;;;24.11;61.49;98187.31;6972441;28;20315;-78
2022/06/24 01:25:54;;;;;;;4.20;2.07;;;;;;;24.12;60.94;98188.94;6972529;28;20728;-77
2022/06/24 01:29:16;;;;;;;3.03;2.00;;;;;;;24.02;61.23;98178.09;6971164;28;20296;-77
2022/06/24 01:32:38;;;;;;;5.70;2.80;;;;;;;23.70;61.65;98177.34;6973407;28;20715;-77
2022/06/24 01:36:00;;;;;;;4.73;2.40;;;;;;;23.96;61.62;98184.03;6969148;28;20211;-78
2022/06/24 01:39:22;;;;;;;5.70;2.30;;;;;;;23.72;62.31;98172.38;6948068;28;20244;-78
2022/06/24 01:42:44;;;;;;;4.27;2.20;;;;;;;23.91;61.83;98173.94;6943670;28;20314;-78
2022/06/24 01:46:06;;;;;;;4.73;2.43;;;;;;;23.95;60.96;98188.72;6946523;28;20199;-78
2022/06/24 01:49:27;;;;;;;5.17;2.30;;;;;;;23.92;60.75;98181.09;6954689;28;20218;-80
2022/06/24 01:52:49;;;;;;;5.93;2.97;;;;;;;23.38;61.38;98144.41;6977376;28;20257;-78
2022/06/24 01:56:12;;;;;;;4.50;2.10;;;;;;;23.71;61.04;98173.50;6977529;28;20260;-78
2022/06/24 01:59:34;;;;;;;3.80;2.27;;;;;;;23.67;61.76;98208.25;6976235;28;20202;-78
2022/06/24 02:02:55;;;;;;;5.73;2.43;;;;;;;23.62;61.88;98194.59;6977458;28;20248;-78
2022/06/24 02:06:17;;;;;;;3.23;2.30;;;;;;;23.90;60.61;98186.06;6977211;28;20242;-78
2022/06/24 02:13:27;;;;;;;3.90;2.37;;;;;;;24.06;60.59;98197.63;6976502;28;20225;-79
2022/06/24 02:16:49;;;;;;;6.13;2.67;;;;;;;24.18;59.46;98187.69;6977086;28;20280;-78
2022/06/24 02:20:11;;;;;;;5.23;2.40;;;;;;;24.10;59.31;98174.66;6975780;28;20233;-79
2022/06/24 02:23:32;;;;;;;6.50;2.50;;;;;;;24.11;59.64;98181.78;6976252;28;20257;-78
2022/06/24 02:26:54;;;;;;;4.47;2.57;;;;;;;23.79;60.58;98165.31;6976232;28;20256;-78
2022/06/24 02:30:17;;;;;;;5.37;2.33;;;;;;;23.84;60.87;98175.44;6973680;28;20212;-79
2022/06/24 02:33:39;;;;;;;3.47;2.30;;;;;;;24.26;59.54;98159.41;6976076;28;20226;-78
2022/06/24 02:37:00;;;;;;;6.80;2.70;;;;;;;24.17;59.85;98154.94;6975814;28;20215;-78
2022/06/24 02:44:01;;;;;;;5.93;2.60;;;;;;;24.19;59.74;98161.78;6975356;28;20230;-78
2022/06/24 02:47:24;;;;;;;5.03;2.67;;;;;;;24.27;59.01;98157.47;6975414;28;20682;-82
2022/06/24 02:50:47;;;;;;;6.23;2.70;;;;;;;24.11;58.86;98156.16;6974436;28;20219;-78
2022/06/24 02:54:09;;;;;;;4.80;2.60;;;;;;;24.01;60.35;98165.47;6976538;28;20208;-78
2022/06/24 02:57:30;;;;;;;5.07;2.33;;;;;;;23.97;60.63;98169.97;6975720;28;20297;-78
2022/06/24 03:00:52;;;;;;;5.70;2.67;;;;;;;23.87;60.39;98144.53;6975064;28;20236;-78
2022/06/24 03:04:15;;;;;;;7.63;3.60;;;;;;;23.49;61.63;98160.41;6976875;28;20199;-78
2022/06/24 03:07:36;;;;;;;5.43;2.93;;;;;;;23.71;60.60;98146.78;6983105;28;20217;-82
2022/06/24 03:10:58;;;;;;;4.10;2.80;;;;;;;23.71;60.85;98154.22;6971733;28;20224;-78
2022/06/24 03:14:20;;;;;;;5.07;2.80;;;;;;;23.87;59.75;98156.41;6981230;28;20206;-78
2022/06/24 03:17:42;;;;;;;6.67;2.80;;;;;;;23.93;59.83;98152.41;6969066;28;20207;-78
2022/06/24 03:21:08;;;;;;;6.27;2.87;;;;;;;24.04;59.39;98153.03;6964745;28;20298;-78
2022/06/24 03:24:29;;;;;;;5.40;2.80;;;;;;;23.98;59.73;98166.09;6976685;28;20199;-78
2022/06/24 03:27:51;;;;;;;5.40;2.87;;;;;;;23.75;60.37;98156.06;6975945;28;20603;-78
2022/06/24 03:31:13;;;;;;;4.70;3.00;;;;;;;23.31;62.06;98164.03;6976284;28;20343;-78
2022/06/24 03:34:35;;;;;;;3.83;2.97;;;;;;;23.60;60.71;98152.78;6975719;28;20278;-78
2022/06/24 03:37:58;;;;;;;7.37;3.33;;;;;;;22.83;61.08;98080.16;6976112;28;20208;-79
2022/06/24 03:41:19;;;;;;;3.90;3.37;;;;;;;22.88;61.65;98128.72;6976232;28;20313;-79
2022/06/24 03:44:41;;;;;;;3.97;3.03;;;;;;;22.82;62.87;98158.25;6976369;28;20224;-78
2022/06/24 03:48:03;;;;;;;5.20;2.83;;;;;;;23.32;61.14;98157.44;6970250;28;20648;-79
2022/06/24 03:51:25;;;;;;;6.50;3.43;;;;;;;23.15;62.41;98148.91;6976258;28;20308;-78
2022/06/24 03:54:48;;;;;;;4.77;3.27;;;;;;;23.26;62.00;98163.31;6977415;28;20220;-79
2022/06/24 03:58:09;;;;;;;4.27;3.00;;;;;;;23.09;62.12;98163.03;6977413;28;20693;-78
2022/06/24 04:01:31;;;;;;;4.03;3.00;;;;;;;23.23;61.63;98159.25;6976528;28;20282;-78
2022/06/24 04:04:53;;;;;;;4.83;3.20;;;;;;;22.86;62.20;98162.03;6975690;28;20684;-78
2022/06/24 04:08:14;;;;;;;8.23;3.63;;;;;;;22.15;64.28;98141.38;6974713;28;20203;-79
2022/06/24 04:11:37;;;;;;;7.00;3.53;;;;;;;22.96;63.00;98163.81;6974757;28;20237;-79
2022/06/24 04:15:14;;;;;;;6.83;3.37;;;;;;;23.02;62.37;98157.13;6974935;28;20213;-79
2022/06/24 04:18:36;;;;;;;4.50;3.03;;;;;;;22.90;62.31;98154.81;6975074;28;20203;-79
2022/06/24 04:21:58;;;;;;;8.10;3.67;;;;;;;22.87;62.74;98160.94;6975654;28;20321;-77
2022/06/24 04:25:19;;;;;;;5.43;3.23;;;;;;;22.69;63.19;98142.53;6975776;28;20570;-80
2022/06/24 04:28:42;;;;;;;7.10;2.80;;;;;;;23.09;62.31;98150.13;6975959;28;20239;-78
2022/06/24 04:32:05;;;;;;;8.10;4.07;;;;;;;23.17;62.24;98148.63;6975823;28;20227;-79
2022/06/24 04:35:26;;;;;;;4.43;3.10;;;;;;;23.44;60.47;98126.69;6975756;28;20205;-79
2022/06/24 04:38:48;;;;;;;4.50;2.83;;;;;;;23.33;61.00;98142.56;6975971;28;20198;-78
2022/06/24 04:42:09;;;;;;;3.87;2.90;;;;;;;23.64;60.00;98156.53;6975704;28;20308;-78
2022/06/24 04:45:32;;;;;;;4.97;2.70;;;;;;;23.79;59.56;98150.75;6975949;28;20214;-78
2022/06/24 04:48:54;;;;;;;3.73;3.10;;;;;;;23.32;60.49;98096.91;6975337;28;20219;-78
2022/06/24 04:52:16;;;;;;;5.23;3.47;;;;;;;23.75;60.70;98134.03;6974989;28;20232;-78
2022/06/24 04:55:38;;;;;;;4.27;3.10;;;;;;;24.13;59.23;98140.16;6976006;28;20211;-77
2022/06/24 04:58:59;;;;;;;5.47;2.93;;;;;;;24.00;59.99;98110.69;6975756;28;20293;-78
2022/06/24 05:02:22;;;;;;;4.33;2.60;;;;;;;24.51;59.28;98127.72;6972684;28;20243;-79
2022/06/24 05:05:44;;;;;;;5.73;3.80;;;;;;;24.86;58.19;98146.22;6973147;28;20237;-78
2022/06/24 05:09:06;;;;;;;7.23;2.83;;;;;;;25.14;56.92;98112.66;6973261;28;20256;-77
2022/06/24 05:12:27;;;;;;;9.07;3.60;;;;;;;25.62;56.24;98121.91;6973228;28;20719;-79
2022/06/24 05:15:49;;;;;;;6.87;3.77;;;;;;;26.03;55.35;98129.84;6988998;28;20187;-78
2022/06/24 05:19:12;;;;;;;6.83;2.73;;;;;;;26.84;52.34;98113.22;6993549;28;20213;-78
2022/06/24 05:22:33;;;;;;;5.13;2.63;;;;;;;27.60;49.70;98122.53;6981778;28;20242;-78
2022/06/24 05:25:55;;;;;;;5.87;2.73;;;;;;;27.04;50.26;98078.53;6977148;28;20209;-79
2022/06/24 05:29:17;;;;;;;8.07;3.27;;;;;;;27.79;49.10;98120.22;6976960;28;20211;-78
2022/06/24 05:32:38;;;;;;;5.53;2.80;;;;;;;27.16;49.67;98121.03;6976786;28;20234;-79
2022/06/24 05:36:01;;;;;;;6.27;3.03;;;;;;;26.87;49.47;98109.81;6977916;28;20232;-79
2022/06/24 05:39:23;;;;;;;5.17;2.60;;;;;;;27.93;48.25;98112.47;6977952;28;20336;-77
2022/06/24 05:42:44;;;;;;;8.00;3.30;;;;;;;27.53;49.59;98103.66;6976960;28;20323;-78
2022/06/24 05:46:06;;;;;;;7.80;2.90;;;;;;;27.54;49.61;98110.81;6977544;28;20636;-82
2022/06/24 05:49:28;;;;;;;6.40;3.20;;;;;;;27.97;48.90;98105.13;6977014;28;20195;-76
2022/06/24 05:56:32;;;;;;;9.87;2.60;;;;;;;27.99;46.22;98088.97;6961290;28;20200;-78
2022/06/24 05:59:53;;;;;;;5.60;2.80;;;;;;;28.95;46.10;98098.72;6977504;28;20212;-79
2022/06/24 06:03:15;;;;;;;6.13;3.00;;;;;;;29.34;45.00;98094.56;6976634;28;20231;-79
2022/06/24 06:06:36;;;;;;;5.60;2.50;;;;;;;29.23;45.07;98087.84;6976632;28;20224;-79
2022/06/24 06:09:59;;;;;;;5.63;2.60;;;;;;;29.67;44.07;98082.25;6968331;28;20216;-79
2022/06/24 06:13:21;;;;;;;5.37;2.63;;;;;;;29.52;44.37;98096.00;6976061;28;20318;-80
2022/06/24 06:16:42;;;;;;;6.00;2.97;;;;;;;29.46;44.66;98084.31;6977314;28;20225;-79
2022/06/24 06:20:05;;;;;;;5.33;2.70;;;;;;;28.21;46.50;98092.28;6978137;28;20208;-79
2022/06/24 06:23:28;;;;;;;4.90;2.67;;;;;;;27.92;47.49;98105.31;6977261;28;20310;-80
2022/06/24 06:26:51;;;;;;;6.33;2.83;;;;;;;28.99;45.67;98108.00;6979898;28;20196;-79
2022/06/24 06:30:13;;;;;;;7.73;3.07;;;;;;;27.66;47.87;98096.28;6978434;28;20239;-79
2022/06/24 06:33:34;;;;;;;7.63;2.40;;;;;;;29.18;44.72;98099.19;6956443;28;20231;-79
2022/06/24 06:36:56;;;;;;;6.07;2.67;;;;;;;29.31;44.04;98104.41;6949968;28;20231;-79
2022/06/24 06:40:18;;;;;;;3.63;2.50;;;;;;;29.98;42.66;98110.34;6962159;28;20202;-79
2022/06/24 06:43:41;;;;;;;6.73;3.40;;;;;;;28.47;45.97;98106.78;6976971;28;20824;-79
2022/06/24 06:47:02;;;;;;;4.67;2.37;;;;;;;29.52;43.15;98099.59;6977165;28;20288;-79
2022/06/24 06:50:24;;;;;;;6.00;2.60;;;;;;;28.77;43.41;98107.53;6961500;28;20665;-78
2022/06/24 06:53:46;;;;;;;3.60;2.30;;;;;;;29.02;44.22;98095.41;6949359;28;20255;-79
2022/06/24 06:57:07;;;;;;;7.33;2.40;;;;;;;28.24;44.46;98058.31;6949922;28;20214;-77
2022/06/24 07:00:30;;;;;;;6.87;2.43;;;;;;;28.63;44.30;98101.44;6948402;28;20212;-80
2022/06/24 07:03:52;;;;;;;3.40;2.53;;;;;;;29.32;41.90;98083.00;6948382;28;20234;-80
2022/06/24 07:07:13;;;;;;;8.60;2.40;;;;;;;28.60;43.71;98075.19;6948606;28;20294;-79
2022/06/24 07:10:35;;;;;;;5.20;2.50;;;;;;;28.32;44.72;98070.50;6960105;28;20273;-80
2022/06/24 07:13:57;;;;;;;4.27;2.40;;;;;;;28.46;44.25;98088.53;6971366;28;20256;-80
2022/06/24 07:17:20;;;;;;;7.70;2.77;;;;;;;28.55;43.75;98069.03;6984938;28;20209;-80
2022/06/24 07:20:43;;;;;;;5.50;2.67;;;;;;;29.99;41.75;98081.38;6982367;28;20276;-77
2022/06/24 07:24:05;;;;;;;6.30;2.60;;;;;;;30.22;39.94;98095.63;6995755;28;20248;-80
2022/06/24 07:27:27;;;;;;;6.53;2.70;;;;;;;30.35;41.06;98084.13;6981491;28;20216;-78
2022/06/24 07:30:48;;;;;;;3.93;2.50;;;;;;;29.99;41.05;98098.03;6976099;28;20214;-78
2022/06/24 07:34:11;;;;;;;6.57;2.40;;;;;;;30.17;40.66;98068.88;6969724;28;20276;-78
2022/06/24 07:37:33;;;;;;;6.73;2.40;;;;;;;29.65;40.97;98103.22;6961078;28;20258;-79
2022/06/24 07:40:56;;;;;;;4.77;2.20;;;;;;;29.68;41.16;98097.81;6960308;28;20588;-79
2022/06/24 07:44:18;;;;;;;7.07;2.20;;;;;;;30.05;38.15;98073.59;6951265;28;20223;-79
2022/06/24 07:47:40;;;;;;;3.83;2.10;;;;;;;29.22;39.11;98089.81;6948605;28;20205;-78
2022/06/24 07:51:11;;;;;;;4.80;2.80;;;;;;;29.51;40.23;98086.88;6958049;28;21452;-78
2022/06/24 07:54:33;;;;;;;6.53;2.50;;;;;;;30.07;39.43;98080.41;6961527;28;20208;-80
2022/06/24 07:57:54;;;;;;;5.20;1.93;;;;;;;30.34;38.45;98082.50;6983995;28;20206;-81
2022/06/24 08:01:16;;;;;;;6.33;2.33;;;;;;;29.92;39.14;98074.75;6982365;28;20248;-77
2022/06/24 08:04:38;;;;;;;2.23;2.10;;;;;;;29.30;39.67;98075.00;6983649;28;20230;-79
2022/06/24 08:08:01;;;;;;;4.03;2.17;;;;;;;29.82;38.45;98086.34;6976447;28;20213;-79
2022/06/24 08:11:23;;;;;;;5.03;2.40;;;;;;;30.53;38.08;98074.34;6982653;28;20225;-79
2022/06/24 08:14:45;;;;;;;3.93;1.90;;;;;;;30.23;38.30;98048.00;6978083;28;20221;-79
2022/06/24 08:18:07;;;;;;;2.70;1.90;;;;;;;30.69;37.26;98069.69;6980126;28;20210;-79
2022/06/24 08:21:29;;;;;;;3.07;1.80;;;;;;;31.02;36.32;98059.09;6982397;28;20230;-80
2022/06/24 08:24:53;;;;;;;6.20;2.10;;;;;;;31.16;35.88;98064.25;6988950;28;20231;-79
2022/06/24 08:28:14;;;;;;;5.77;2.10;;;;;;;31.50;34.30;98053.28;6991356;28;20198;-80
2022/06/24 08:31:36;;;;;;;3.13;1.77;;;;;;;30.42;35.83;98009.22;6990968;28;20230;-79
2022/06/24 08:34:58;;;;;;;3.70;1.90;;;;;;;30.82;35.02;98048.19;6989064;28;20213;-79
2022/06/24 08:38:20;;;;;;;3.27;2.00;;;;;;;30.41;34.99;98034.59;6985838;28;20559;-79
2022/06/24 08:41:47;;;;;;;3.83;1.97;;;;;;;29.71;35.85;97979.59;6986227;28;20244;-79
2022/06/24 08:45:13;;;;;;;3.77;1.60;;;;;;;30.44;36.23;98001.31;6990315;28;20217;-79
2022/06/24 08:48:35;;;;;;;2.77;1.77;;;;;;;31.15;34.28;98029.22;6984991;28;20277;-79
2022/06/24 08:51:58;;;;;;;4.67;1.90;;;;;;;31.59;34.06;98039.16;6982304;28;20229;-79
2022/06/24 08:55:20;;;;;;;2.50;1.60;;;;;;;31.66;33.26;98026.22;6976661;28;20205;-79
2022/06/24 08:58:43;;;;;;;4.07;1.50;;;;;;;32.31;32.65;98017.06;6977930;28;20217;-80
2022/06/24 09:02:05;;;;;;;4.10;1.67;;;;;;;31.12;32.71;98024.34;6980948;28;20236;-79
2022/06/24 09:05:28;;;;;;;2.13;1.60;;;;;;;30.99;34.48;98006.91;6981936;28;20233;-79
2022/06/24 09:08:51;;;;;;;2.93;1.87;;;;;;;31.27;33.53;97993.78;6980548;28;20217;-79
2022/06/24 09:12:13;;;;;;;2.87;1.20;;;;;;;31.21;32.34;97978.50;6985562;28;20265;-80
2022/06/24 09:15:37;;;;;;;4.73;2.03;;;;;;;31.28;33.12;98011.28;6984794;28;20204;-79
2022/06/24 09:18:59;;;;;;;3.40;2.07;;;;;;;31.72;32.27;97993.34;6983600;28;20198;-79
2022/06/24 09:22:27;;;;;;;4.43;1.57;;;;;;;32.46;31.39;98005.03;6983502;28;20231;-79
2022/06/24 09:25:51;;;;;;;2.93;1.40;;;;;;;32.71;30.62;97999.94;6962205;28;20216;-79
2022/06/24 09:29:13;;;;;;;2.03;1.60;;;;;;;33.07;29.98;97999.50;6964559;28;20226;-82
2022/06/24 09:32:49;;;;;;;2.10;1.40;;;;;;;33.60;28.78;97993.69;6968715;28;20659;-79
2022/06/24 09:36:12;;;;;;;1.83;1.30;;;;;;;33.74;28.17;97996.72;6953144;28;20570;-79
2022/06/24 09:39:34;;;;;;;1.90;1.43;;;;;;;33.12;29.09;97991.63;6952058;28;20209;-80
2022/06/24 09:42:59;;;;;;;4.77;1.40;;;;;;;32.87;29.46;97956.00;6975153;28;20237;-80
2022/06/24 09:46:22;;;;;;;3.13;1.60;;;;;;;32.50;31.36;97994.75;6984553;28;20209;-80
2022/06/24 09:49:56;;;;;;;2.40;1.70;;;;;;;32.26;31.49;97991.44;6979061;28;20217;-79
2022/06/24 09:53:18;;;;;;;4.47;1.97;;;;;;;32.49;31.42;97970.00;6980508;28;20230;-79
2022/06/24 09:56:40;;;;;;;3.33;1.90;;;;;;;32.59;30.54;97966.59;6980954;28;20210;-78
2022/06/24 10:03:41;;;;;;;4.63;2.40;;;;;;;31.38;33.23;97994.84;6982875;28;20227;-79
2022/06/24 10:07:05;;;;;;;2.40;1.60;;;;;;;31.84;32.26;97990.44;6987581;28;20208;-77
2022/06/24 10:10:29;;;;;;;4.10;2.17;;;;;;;31.95;32.58;97977.56;6981178;28;20209;-78
2022/06/24 10:13:52;;;;;;;3.70;2.10;;;;;;;32.35;32.93;97978.06;6979050;28;20256;-78
2022/06/24 10:17:15;;;;;;;3.40;1.87;;;;;;;32.92;32.87;97976.09;6981332;28;20224;-79
2022/06/24 10:20:37;;;;;;;4.50;2.07;;;;;;;32.50;32.90;97980.81;6978434;28;20206;-79
2022/06/24 10:24:00;;;;;;;5.17;2.70;;;;;;;31.01;35.42;97962.81;6979587;28;20249;-80
2022/06/24 10:27:22;;;;;;;4.50;2.40;;;;;;;31.46;34.60;97974.34;6981723;28;20249;-79
2022/06/24 10:30:58;;;;;;;5.67;2.20;;;;;;;32.75;31.78;97984.91;6979430;28;20221;-79
2022/06/24 10:34:34;;;;;;;2.23;2.03;;;;;;;32.09;33.10;97975.06;6979135;28;20207;-80
2022/06/24 10:37:56;;;;;;;2.37;1.70;;;;;;;32.81;32.19;97977.03;6978229;28;20200;-79
2022/06/24 10:41:37;;;;;;;5.77;2.10;;;;;;;34.02;29.84;97974.00;6979295;28;20219;-79
2022/06/24 10:45:01;;;;;;;4.67;1.77;;;;;;;34.82;27.54;97963.09;6990356;28;20245;-79
2022/06/24 10:48:47;;;;;;;1.80;1.60;;;;;;;34.32;28.24;97977.66;6980136;28;20202;-79
2022/06/24 10:52:29;;;;;;;2.47;1.60;;;;;;;32.22;30.57;97979.34;6978454;28;20229;-78
2022/06/24 10:55:51;;;;;;;2.47;1.70;;;;;;;31.83;32.33;97964.53;6976858;28;20183;-79
2022/06/24 10:59:16;;;;;;;3.53;2.00;;;;;;;30.41;37.18;97967.84;6967855;28;20682;-80
2022/06/24 11:02:37;;;;;;;2.87;2.27;;;;;;;31.09;37.23;97972.97;6952054;28;20256;-79
2022/06/24 11:05:59;;;;;;;4.23;2.10;;;;;;;31.50;36.70;97978.06;6963786;28;20271;-80
2022/06/24 11:09:21;;;;;;;6.93;2.63;;;;;;;31.73;35.24;97969.84;6977695;28;20206;-79
2022/06/24 11:12:48;;;;;;;5.27;2.20;;;;;;;31.26;36.07;97978.22;6979268;28;20229;-79
2022/06/24 11:16:11;;;;;;;3.20;2.20;;;;;;;30.29;37.26;97971.50;6976866;28;20255;-79
2022/06/24 11:19:39;;;;;;;3.83;2.20;;;;;;;30.73;37.04;97972.38;6976775;28;20198;-79
2022/06/24 11:23:01;;;;;;;5.17;2.50;;;;;;;30.80;36.18;97953.09;6976040;28;20233;-80
2022/06/24 11:26:22;;;;;;;3.30;1.90;;;;;;;30.67;37.83;97966.25;6976856;28;20236;-79
2022/06/24 11:29:54;;;;;;;4.77;2.53;;;;;;;30.44;38.88;97984.63;6974408;28;20213;-82
2022/06/24 11:33:17;;;;;;;4.93;2.67;;;;;;;31.08;38.32;97974.13;6977205;28;20696;-80
2022/06/24 11:36:39;;;;;;;3.73;2.43;;;;;;;31.22;37.35;97957.84;6962818;28;20244;-79
2022/06/24 11:40:01;;;;;;;6.27;2.50;;;;;;;31.59;37.11;97959.16;6973251;28;20203;-82
2022/06/24 11:43:23;;;;;;;5.13;2.50;;;;;;;32.40;36.09;97959.06;6955700;28;20252;-80
2022/06/24 11:46:50;;;;;;;4.03;2.40;;;;;;;32.82;34.17;97945.97;6952841;28;20644;-80
2022/06/24 11:50:19;;;;;;;6.53;2.60;;;;;;;32.62;34.65;97947.16;6951575;28;20199;-80
2022/06/24 11:53:43;;;;;;;8.43;2.60;;;;;;;32.58;34.05;97964.97;6952205;28;20230;-80
2022/06/24 11:57:08;;;;;;;3.43;2.20;;;;;;;30.96;35.13;97924.09;6951257;28;20217;-80
2022/06/24 12:00:32;;;;;;;5.03;2.40;;;;;;;30.82;36.28;97959.09;6950313;28;20224;-80
2022/06/24 12:04:03;;;;;;;5.03;2.23;;;;;;;30.90;37.04;97942.22;6950251;28;20248;-80
2022/06/24 12:07:26;;;;;;;4.03;2.00;;;;;;;30.65;36.56;97956.63;6951640;28;20662;-81
2022/06/24 12:10:51;;;;;;;3.80;2.40;;;;;;;31.04;36.61;97948.19;6950318;28;20217;-80
2022/06/24 12:14:15;;;;;;;4.63;2.30;;;;;;;30.61;36.69;97950.16;6956237;28;20235;-80
2022/06/24 12:17:37;;;;;;;3.77;2.30;;;;;;;30.68;37.26;97923.34;6977445;28;20229;-79
2022/06/24 12:21:01;;;;;;;4.40;2.33;;;;;;;30.65;37.58;97934.38;6978249;28;20785;-80
2022/06/24 12:24:25;;;;;;;3.77;2.33;;;;;;;30.67;38.08;97948.75;6978376;28;20744;-80
2022/06/24 12:27:49;;;;;;;7.70;3.17;;;;;;;30.74;37.66;97915.53;6976551;28;20274;-80
2022/06/24 12:31:12;;;;;;;6.73;4.40;;;;;;;31.28;37.40;97945.25;6977708;28;20244;-80
2022/06/24 12:34:35;;;;;;;5.63;2.47;;;;;;;30.22;40.10;97943.47;6965929;28;20203;-80
2022/06/24 12:37:56;;;;;;;4.53;2.27;;;;;;;30.10;40.20;97937.94;6969446;28;20220;-81
2022/06/24 12:41:21;;;;;;;2.70;2.07;;;;;;;29.94;40.16;97967.59;6980053;28;20303;-81
2022/06/24 12:44:44;;;;;;;30.63;12.23;;;;;;;29.84;40.92;97979.19;6976687;28;20289;-82
2022/06/24 12:51:46;;;;;;;3.23;2.10;;;;;;;29.70;41.55;97980.72;6967136;28;20223;-80
2022/06/24 12:55:09;;;;;;;4.60;2.03;;;;;;;29.07;44.97;97975.81;6981769;28;20198;-81
2022/06/24 12:58:34;;;;;;;4.43;2.50;;;;;;;28.90;44.13;97993.44;6981826;28;20215;-80
2022/06/24 13:01:56;;;;;;;3.97;2.50;;;;;;;28.85;44.36;97993.66;6982290;28;20230;-80
2022/06/24 13:05:19;;;;;;;3.37;2.20;;;;;;;28.39;44.35;98016.16;6982009;28;20223;-80
2022/06/24 13:08:41;;;;;;;4.20;2.10;;;;;;;28.51;44.20;97998.75;6981492;28;20854;-80
2022/06/24 13:12:04;;;;;;;2.57;2.00;;;;;;;28.06;44.35;97992.22;6983597;28;20238;-80
2022/06/24 13:15:28;;;;;;;4.23;2.10;;;;;;;27.91;44.20;97979.81;6984844;28;20212;-81
2022/06/24 13:18:50;;;;;;;2.40;1.93;;;;;;;27.53;45.69;97936.66;6989855;28;20228;-81
2022/06/24 13:22:11;;;;;;;8.80;3.57;;;;;;;27.40;47.31;97962.66;6991543;28;20276;-81
2022/06/24 13:25:33;;;;;;;5.57;3.10;;;;;;;27.66;50.62;97980.75;6989219;28;20628;-80
2022/06/24 13:28:55;;;;;;;10.17;3.90;;;;;;;27.27;50.53;97977.53;6986818;28;20223;-80
2022/06/24 13:32:18;;;;;;;8.30;3.80;;;;;;;27.33;53.85;97956.81;6963830;28;20237;-80
2022/06/24 13:35:39;;;;;;;9.37;3.73;;;;;;;27.98;50.11;97985.63;6970373;28;20214;-79
2022/06/24 13:39:01;;;;;;;8.37;3.67;;;;;;;28.12;50.59;97977.84;6976933;28;20236;-80
2022/06/24 13:42:23;;;;;;;6.13;3.57;;;;;;;27.71;53.01;97982.53;6976698;28;20317;-79
2022/06/24 13:45:45;;;;;;;6.47;3.13;;;;;;;27.39;53.71;97986.78;7000306;28;20229;-80
2022/06/24 13:49:08;;;;;;;10.33;3.03;;;;;;;27.18;53.99;97974.81;6973137;28;20786;-80
2022/06/24 13:52:30;;;;;;;8.67;3.30;;;;;;;26.91;55.28;98002.88;6980529;28;20268;-80
2022/06/24 13:55:51;;;;;;;7.27;3.47;;;;;;;26.34;56.39;97998.72;6980761;28;20207;-81
2022/06/24 13:59:14;;;;;;;3.63;2.80;;;;;;;26.71;54.11;98014.63;6981978;28;20691;-79
2022/06/24 14:02:36;;;;;;;6.20;2.83;;;;;;;26.16;56.21;98007.31;6982971;28;20226;-80
2022/06/24 14:05:59;;;;;;;5.57;2.60;;;;;;;26.05;56.00;97981.13;6982732;28;20245;-80
2022/06/24 14:09:21;;;;;;;6.03;3.07;;;;;;;26.44;56.62;98031.56;6981780;28;20204;-80
2022/06/24 14:12:43;;;;;;;4.07;2.57;;;;;;;26.17;54.69;98031.03;6981796;28;20247;-80
2022/06/24 14:16:05;;;;;;;3.23;2.50;;;;;;;26.24;55.69;98045.22;6981750;28;20230;-80
2022/06/24 14:19:26;;;;;;;3.37;2.60;;;;;;;26.18;56.25;98050.06;6981590;28;20207;-80
2022/06/24 14:26:29;;;;;;;3.77;2.90;;;;;;;25.81;58.27;98038.75;6982077;28;20203;-80
2022/06/24 14:29:51;;;;;;;6.33;3.27;;;;;;;25.61;58.36;98026.38;6979678;28;20212;-80
2022/06/24 14:33:13;;;;;;;4.03;3.00;;;;;;;25.36;59.14;98034.59;6980840;28;20258;-80
2022/06/24 14:36:34;;;;;;;4.93;2.63;;;;;;;25.50;57.69;98027.00;6980279;28;20198;-81
2022/06/24 14:40:11;;;;;;;3.13;2.47;;;;;;;25.34;57.84;98026.63;6980551;28;20203;-80
2022/06/24 14:43:33;;;;;;;3.73;2.57;;;;;;;24.97;59.43;98054.66;6979978;28;20320;-80
2022/06/24 14:46:54;;;;;;;4.07;2.73;;;;;;;25.20;59.41;98060.94;6980620;28;20212;-80
2022/06/24 14:50:16;;;;;;;5.40;2.90;;;;;;;24.55;59.52;98016.53;6980395;28;20292;-80
2022/06/24 14:53:38;;;;;;;6.47;3.20;;;;;;;24.91;60.51;98061.44;6979945;28;20221;-81
2022/06/24 14:57:01;;;;;;;6.63;3.00;;;;;;;25.04;59.70;98073.50;6980217;28;20234;-80
2022/06/24 15:00:23;;;;;;;3.97;2.57;;;;;;;24.88;59.93;98067.56;6980494;28;20205;-80
2022/06/24 15:03:45;;;;;;;4.73;2.90;;;;;;;24.95;60.77;98078.16;6981745;28;20716;-80
2022/06/24 15:07:06;;;;;;;3.77;2.60;;;;;;;24.78;60.36;98084.34;6980287;28;20198;-80
2022/06/24 15:10:28;;;;;;;3.93;3.00;;;;;;;24.77;60.64;98101.22;6980536;28;20237;-83
2022/06/24 15:13:51;;;;;;;4.10;3.10;;;;;;;24.67;60.80;98080.22;6979724;28;20271;-80
2022/06/24 15:17:15;;;;;;;3.27;2.77;;;;;;;24.51;59.63;98047.78;6979890;28;20684;-80
2022/06/24 15:20:37;;;;;;;4.93;3.10;;;;;;;24.89;60.06;98087.69;6964177;28;20283;-81
2022/06/24 15:23:59;;;;;;;3.73;2.67;;;;;;;24.76;59.20;98085.78;6967594;28;20243;-80
2022/06/24 15:27:21;;;;;;;3.37;2.90;;;;;;;24.46;59.83;98100.28;6966606;28;20214;-80
2022/06/24 15:30:44;;;;;;;3.07;2.40;;;;;;;24.54;59.30;98069.22;6978594;28;20219;-80
2022/06/24 15:34:06;;;;;;;3.73;2.67;;;;;;;23.77;62.47;98126.28;6977107;28;20231;-80
2022/06/24 15:37:27;;;;;;;3.87;2.90;;;;;;;23.58;63.45;98138.50;6979696;28;20208;-80
2022/06/24 15:40:49;;;;;;;3.13;2.40;;;;;;;23.62;62.69;98140.38;6976166;28;20564;-80
2022/06/24 15:44:11;;;;;;;4.47;2.30;;;;;;;22.60;63.63;98107.78;6979300;28;20254;-79
2022/06/24 15:47:33;;;;;;;3.23;2.07;;;;;;;23.71;60.32;98134.97;6980041;28;20207;-80
2022/06/24 15:50:55;;;;;;;5.50;2.40;;;;;;;23.56;61.74;98133.31;6998637;28;20206;-80
2022/06/24 15:54:17;;;;;;;2.23;2.07;;;;;;;23.36;63.01;98122.69;6981102;28;20226;-80
2022/06/24 15:57:38;;;;;;;3.93;2.20;;;;;;;23.94;61.18;98137.53;6979671;28;20251;-81
2022/06/24 16:01:00;;;;;;;5.47;2.47;;;;;;;24.17;61.54;98100.66;6979888;28;20301;-80
2022/06/24 16:04:23;;;;;;;3.67;2.60;;;;;;;24.20;62.13;98124.84;6979446;28;20321;-80
2022/06/24 16:07:44;;;;;;;2.03;1.80;;;;;;;24.59;59.06;98082.94;6979002;28;20205;-80
2022/06/24 16:11:07;;;;;;;2.13;1.93;;;;;;;24.68;59.11;98112.19;6979331;28;20255;-80
2022/06/24 16:14:28;;;;;;;2.30;2.10;;;;;;;24.26;59.47;98098.00;6978211;28;20203;-81
2022/06/24 16:17:50;;;;;;;2.10;1.90;;;;;;;24.31;60.46;98114.41;6978146;28;20619;-81